createdAt,value
2022-07-29T00:01:08.863Z,17.09
2022-07-29T00:03:46.858Z,17.04
2022-07-29T00:06:14.726Z,17.01
2022-07-29T00:08:41.833Z,16.95
2022-07-29T00:11:08.908Z,16.96
2022-07-29T00:13:36.032Z,16.90
2022-07-29T00:16:04.481Z,16.88
2022-07-29T00:18:33.170Z,16.89
2022-07-29T00:21:00.750Z,16.88
2022-07-29T00:23:28.006Z,16.85
2022-07-29T00:25:55.041Z,16.88
2022-07-29T00:28:22.062Z,16.88
2022-07-29T00:30:49.161Z,16.88
2022-07-29T00:33:16.258Z,16.88
2022-07-29T00:35:46.337Z,16.84
2022-07-29T00:38:15.610Z,16.86
2022-07-29T00:40:43.976Z,16.84
2022-07-29T00:43:12.892Z,16.83
2022-07-29T00:45:39.975Z,16.84
2022-07-29T00:48:09.786Z,16.83
2022-07-29T00:50:38.073Z,16.82
2022-07-29T00:53:07.921Z,16.81
2022-07-29T00:55:35.445Z,16.77
2022-07-29T00:58:02.778Z,16.75
2022-07-29T01:00:30.554Z,16.73
2022-07-29T01:02:57.791Z,16.67
2022-07-29T01:05:50.710Z,16.72
2022-07-29T01:08:16.583Z,16.72
2022-07-29T01:10:45.620Z,16.73
2022-07-29T01:13:13.654Z,16.74
2022-07-29T01:15:50.784Z,16.74
2022-07-29T01:18:23.574Z,16.71
2022-07-29T01:21:29.781Z,16.69
2022-07-29T01:24:31.447Z,16.68
2022-07-29T01:27:36.794Z,16.68
2022-07-29T01:30:05.438Z,16.68
2022-07-29T01:32:38.504Z,16.73
2022-07-29T01:35:21.978Z,16.77
2022-07-29T01:38:02.841Z,16.77
2022-07-29T01:40:29.946Z,16.77
2022-07-29T01:42:59.432Z,16.80
2022-07-29T01:45:38.292Z,16.78
2022-07-29T01:48:11.703Z,16.77
2022-07-29T01:50:51.816Z,16.79
2022-07-29T01:53:43.853Z,16.77
2022-07-29T01:56:13.484Z,16.78
2022-07-29T01:58:42.882Z,16.78
2022-07-29T02:01:11.129Z,16.82
2022-07-29T02:03:40.626Z,16.78
2022-07-29T02:06:10.573Z,16.73
2022-07-29T02:08:40.211Z,16.74
2022-07-29T02:11:09.611Z,16.72
2022-07-29T02:13:38.745Z,16.68
2022-07-29T02:16:08.646Z,16.67
2022-07-29T02:18:38.793Z,16.66
2022-07-29T02:21:06.442Z,16.65
2022-07-29T02:23:50.458Z,16.60
2022-07-29T02:26:21.701Z,16.61
2022-07-29T02:28:51.491Z,16.61
2022-07-29T02:31:23.135Z,16.53
2022-07-29T02:33:53.017Z,16.54
2022-07-29T02:36:23.291Z,16.53
2022-07-29T02:38:51.472Z,16.47
2022-07-29T02:41:27.501Z,16.44
2022-07-29T02:44:04.974Z,16.39
2022-07-29T02:46:39.137Z,16.35
2022-07-29T02:49:28.323Z,16.43
2022-07-29T02:52:13.622Z,16.37
2022-07-29T02:54:47.379Z,16.37
2022-07-29T02:57:56.296Z,16.39
2022-07-29T03:00:28.612Z,16.39
2022-07-29T03:02:59.862Z,16.42
2022-07-29T03:05:27.893Z,16.39
2022-07-29T03:08:02.974Z,16.36
2022-07-29T03:10:31.381Z,16.35
2022-07-29T03:12:59.333Z,16.28
2022-07-29T03:15:27.134Z,16.21
2022-07-29T03:17:55.118Z,16.25
2022-07-29T03:20:22.460Z,16.20
2022-07-29T03:22:50.460Z,16.20
2022-07-29T03:25:20.417Z,16.15
2022-07-29T03:27:49.311Z,16.13
2022-07-29T03:30:21.995Z,16.17
2022-07-29T03:32:52.075Z,16.18
2022-07-29T03:35:23.777Z,16.23
2022-07-29T03:37:51.250Z,16.21
2022-07-29T03:40:27.218Z,16.21
2022-07-29T03:42:56.477Z,16.25
2022-07-29T03:45:25.574Z,16.26
2022-07-29T03:48:01.526Z,16.29
2022-07-29T03:50:31.418Z,16.37
2022-07-29T03:52:58.897Z,16.34
2022-07-29T03:55:27.634Z,16.42
2022-07-29T03:57:57.098Z,16.40
2022-07-29T04:00:26.897Z,16.40
2022-07-29T04:02:54.060Z,16.40
2022-07-29T04:05:21.155Z,16.49
2022-07-29T04:07:49.270Z,16.51
2022-07-29T04:10:25.234Z,16.56
2022-07-29T04:12:59.337Z,16.62
2022-07-29T04:15:26.534Z,16.61
2022-07-29T04:17:59.511Z,16.70
2022-07-29T04:20:26.945Z,16.72
2022-07-29T04:22:54.114Z,16.72
2022-07-29T04:25:21.290Z,16.69
2022-07-29T04:28:03.347Z,16.69
2022-07-29T04:30:32.196Z,16.82
2022-07-29T04:32:59.849Z,16.88
2022-07-29T04:35:27.061Z,16.94
2022-07-29T04:37:54.347Z,16.99
2022-07-29T04:40:21.700Z,17.05
2022-07-29T04:42:49.541Z,17.04
2022-07-29T04:45:16.897Z,17.05
2022-07-29T04:47:50.253Z,17.09
2022-07-29T04:50:17.822Z,17.13
2022-07-29T04:52:45.147Z,17.19
2022-07-29T04:55:12.382Z,17.24
2022-07-29T04:57:39.411Z,17.31
2022-07-29T05:00:07.919Z,17.39
2022-07-29T05:02:35.248Z,17.45
2022-07-29T05:05:02.412Z,17.43
2022-07-29T05:07:29.575Z,17.45
2022-07-29T05:09:58.171Z,17.49
2022-07-29T05:12:25.931Z,17.50
2022-07-29T05:14:53.514Z,17.52
2022-07-29T05:17:20.566Z,17.57
2022-07-29T05:19:47.612Z,17.66
2022-07-29T05:22:14.661Z,17.71
2022-07-29T05:24:42.003Z,17.74
2022-07-29T05:27:09.052Z,17.84
2022-07-29T05:29:44.088Z,17.87
2022-07-29T05:32:14.053Z,17.89
2022-07-29T05:34:50.353Z,17.94
2022-07-29T05:37:20.862Z,17.98
2022-07-29T05:39:50.363Z,17.99
2022-07-29T05:42:24.135Z,18.01
2022-07-29T05:44:51.230Z,18.04
2022-07-29T05:47:18.348Z,18.17
2022-07-29T05:49:45.507Z,18.25
2022-07-29T05:52:14.353Z,18.29
2022-07-29T05:54:41.947Z,18.31
2022-07-29T05:57:09.044Z,18.38
2022-07-29T05:59:39.307Z,18.44
2022-07-29T06:02:06.475Z,18.48
2022-07-29T06:04:34.794Z,18.57
2022-07-29T06:07:02.921Z,18.70
2022-07-29T06:09:30.494Z,18.83
2022-07-29T06:11:59.104Z,18.94
2022-07-29T06:14:27.860Z,19.07
2022-07-29T06:16:55.261Z,19.19
2022-07-29T06:19:22.758Z,19.34
2022-07-29T06:21:49.920Z,19.42
2022-07-29T06:24:17.566Z,19.52
2022-07-29T06:26:45.060Z,19.63
2022-07-29T06:29:12.284Z,19.79
2022-07-29T06:31:40.295Z,20.00
2022-07-29T06:34:07.802Z,20.18
2022-07-29T06:36:39.735Z,20.27
2022-07-29T06:39:09.178Z,20.44
2022-07-29T06:41:36.745Z,20.59
2022-07-29T06:44:10.312Z,20.76
2022-07-29T06:46:37.720Z,20.90
2022-07-29T06:49:05.645Z,21.06
2022-07-29T06:51:32.824Z,21.23
2022-07-29T06:54:02.783Z,21.39
2022-07-29T06:56:38.141Z,21.67
2022-07-29T06:59:08.196Z,21.97
2022-07-29T07:01:37.131Z,22.18
2022-07-29T07:04:04.325Z,22.45
2022-07-29T07:06:31.386Z,22.68
2022-07-29T07:08:58.860Z,22.76
2022-07-29T07:11:26.000Z,22.68
2022-07-29T07:13:53.172Z,22.68
2022-07-29T07:16:20.387Z,22.85
2022-07-29T07:18:47.561Z,22.98
2022-07-29T07:21:18.891Z,23.01
2022-07-29T07:23:47.538Z,23.38
2022-07-29T07:26:15.899Z,23.53
2022-07-29T07:28:43.195Z,23.49
2022-07-29T07:31:10.796Z,23.51
2022-07-29T07:33:37.901Z,23.64
2022-07-29T07:36:05.257Z,23.84
2022-07-29T07:38:32.504Z,24.05
2022-07-29T07:41:00.135Z,24.24
2022-07-29T07:43:27.185Z,24.28
2022-07-29T07:45:54.372Z,24.47
2022-07-29T07:48:21.905Z,24.59
2022-07-29T07:50:50.511Z,24.57
2022-07-29T07:53:17.967Z,24.63
2022-07-29T07:56:09.282Z,24.64
2022-07-29T07:58:32.535Z,24.70
2022-07-29T08:00:59.686Z,24.84
2022-07-29T08:03:27.539Z,24.81
2022-07-29T08:05:55.456Z,24.75
2022-07-29T08:08:22.681Z,24.84
2022-07-29T08:11:02.143Z,25.02
2022-07-29T08:13:33.255Z,25.24
2022-07-29T08:16:02.847Z,25.45
2022-07-29T08:18:32.090Z,25.56
2022-07-29T08:21:00.002Z,25.52
2022-07-29T08:23:45.501Z,25.59
2022-07-29T08:26:14.845Z,25.60
2022-07-29T08:28:47.207Z,25.48
2022-07-29T08:31:15.178Z,25.23
2022-07-29T08:33:43.112Z,25.10
2022-07-29T08:36:10.837Z,25.13
2022-07-29T08:38:38.260Z,25.35
2022-07-29T08:41:05.781Z,25.60
2022-07-29T08:43:33.498Z,25.82
2022-07-29T08:46:01.937Z,26.04
2022-07-29T08:48:29.184Z,26.05
2022-07-29T08:50:57.809Z,26.12
2022-07-29T08:53:27.936Z,26.03
2022-07-29T08:55:55.817Z,25.97
2022-07-29T08:58:25.253Z,25.98
2022-07-29T09:00:56.088Z,25.83
2022-07-29T09:03:26.917Z,25.72
2022-07-29T09:05:54.917Z,25.67
2022-07-29T09:08:22.717Z,25.52
2022-07-29T09:10:50.645Z,25.31
2022-07-29T09:13:17.817Z,25.04
2022-07-29T09:15:46.188Z,24.81
2022-07-29T09:18:20.458Z,24.71
2022-07-29T09:21:16.870Z,24.53
2022-07-29T09:24:08.205Z,24.30
2022-07-29T09:26:46.654Z,24.23
2022-07-29T09:29:22.256Z,24.14
2022-07-29T09:31:53.786Z,24.09
2022-07-29T09:34:29.636Z,24.10
2022-07-29T09:36:57.308Z,24.11
2022-07-29T09:39:33.301Z,24.11
2022-07-29T09:42:05.523Z,24.04
2022-07-29T09:44:50.305Z,23.98
2022-07-29T09:47:19.870Z,23.92
2022-07-29T09:49:54.636Z,23.93
2022-07-29T09:52:22.620Z,24.00
2022-07-29T09:54:49.908Z,23.99
2022-07-29T09:57:31.111Z,23.88
2022-07-29T09:59:59.439Z,24.04
2022-07-29T10:02:34.571Z,24.14
2022-07-29T10:05:04.624Z,24.22
2022-07-29T10:07:53.954Z,24.21
2022-07-29T10:10:26.371Z,24.20
2022-07-29T10:13:01.871Z,24.14
2022-07-29T10:15:39.665Z,24.08
2022-07-29T10:18:07.912Z,24.11
2022-07-29T10:20:35.947Z,24.16
2022-07-29T10:23:03.828Z,24.18
2022-07-29T10:25:31.776Z,24.16
2022-07-29T10:27:58.945Z,24.09
2022-07-29T10:30:27.180Z,24.09
2022-07-29T10:32:56.987Z,24.10
2022-07-29T10:35:45.361Z,24.21
2022-07-29T10:38:47.215Z,24.26
2022-07-29T10:42:06.403Z,24.25
2022-07-29T10:44:37.558Z,24.27
2022-07-29T10:47:04.880Z,24.29
2022-07-29T10:49:32.270Z,24.28
2022-07-29T10:52:09.767Z,24.24
2022-07-29T10:54:43.833Z,24.27
2022-07-29T10:57:16.701Z,24.30
2022-07-29T10:59:46.634Z,24.30
2022-07-29T11:02:41.450Z,24.49
2022-07-29T11:05:12.226Z,24.55
2022-07-29T11:07:46.041Z,24.58
2022-07-29T11:10:14.033Z,24.60
2022-07-29T11:12:44.793Z,24.54
2022-07-29T11:15:31.750Z,24.49
2022-07-29T11:18:00.352Z,24.46
2022-07-29T11:20:49.904Z,24.45
2022-07-29T11:23:25.327Z,24.50
2022-07-29T11:26:12.871Z,24.53
2022-07-29T11:28:55.542Z,24.56
2022-07-29T11:31:36.443Z,24.62
2022-07-29T11:34:23.082Z,24.66
2022-07-29T11:37:14.792Z,24.74
2022-07-29T11:39:44.790Z,24.88
2022-07-29T11:45:43.862Z,24.89
2022-07-29T11:48:28.912Z,25.06
2022-07-29T11:50:54.524Z,25.41
2022-07-29T11:53:22.107Z,25.82
2022-07-29T11:55:58.363Z,25.99
2022-07-29T11:58:26.426Z,26.05
2022-07-29T12:03:43.698Z,26.33
2022-07-29T12:06:15.716Z,26.44
2022-07-29T12:07:03.694Z,24.93
2022-07-29T12:08:46.152Z,26.58
2022-07-29T12:11:23.461Z,26.62
2022-07-29T12:13:52.756Z,26.79
2022-07-29T12:16:29.262Z,26.69
2022-07-29T12:19:02.334Z,26.44
2022-07-29T12:21:31.083Z,26.19
2022-07-29T12:24:05.625Z,25.99
2022-07-29T12:26:36.404Z,25.98
2022-07-29T12:29:04.503Z,25.99
2022-07-29T12:31:42.168Z,26.02
2022-07-29T12:34:17.044Z,26.03
2022-07-29T12:36:44.826Z,26.22
2022-07-29T12:39:13.570Z,26.36
2022-07-29T12:41:40.888Z,26.61
2022-07-29T12:44:08.141Z,26.64
2022-07-29T12:46:35.884Z,26.73
2022-07-29T12:49:04.114Z,26.78
2022-07-29T12:51:35.035Z,26.80
2022-07-29T12:54:06.674Z,26.72
2022-07-29T12:56:43.199Z,26.49
2022-07-29T12:59:22.804Z,26.29
2022-07-29T13:01:53.614Z,26.20
2022-07-29T13:04:32.463Z,25.98
2022-07-29T13:07:07.187Z,25.83
2022-07-29T13:09:38.603Z,25.71
2022-07-29T13:12:13.552Z,25.62
2022-07-29T13:14:48.211Z,25.55
2022-07-29T13:17:21.921Z,25.68
2022-07-29T13:19:54.152Z,25.61
2022-07-29T13:22:25.673Z,25.42
2022-07-29T13:24:57.698Z,25.54
2022-07-29T13:27:27.071Z,25.81
2022-07-29T13:29:57.723Z,26.01
2022-07-29T13:32:28.697Z,25.99
2022-07-29T13:35:01.324Z,25.80
2022-07-29T13:37:34.123Z,25.59
2022-07-29T13:40:01.474Z,25.56
2022-07-29T13:42:28.954Z,25.60
2022-07-29T13:44:56.283Z,25.69
2022-07-29T13:47:32.550Z,25.58
2022-07-29T13:50:01.984Z,25.42
2022-07-29T13:52:29.292Z,25.30
2022-07-29T13:54:56.552Z,25.24
2022-07-29T13:57:23.914Z,25.28
2022-07-29T13:59:54.342Z,25.30
2022-07-29T14:02:25.791Z,25.34
2022-07-29T14:04:55.055Z,25.41
2022-07-29T14:07:22.943Z,25.58
2022-07-29T14:09:50.084Z,25.69
2022-07-29T14:12:17.462Z,25.67
2022-07-29T14:14:44.965Z,25.53
2022-07-29T14:17:15.049Z,25.42
2022-07-29T14:19:42.281Z,25.47
2022-07-29T14:22:10.785Z,25.54
2022-07-29T14:24:38.450Z,25.59
2022-07-29T14:27:08.045Z,25.58
2022-07-29T14:29:37.201Z,25.49
2022-07-29T14:32:11.497Z,25.35
2022-07-29T14:34:39.423Z,25.24
2022-07-29T14:37:07.910Z,25.09
2022-07-29T14:39:42.792Z,24.99
2022-07-29T14:42:12.847Z,24.99
2022-07-29T14:44:42.674Z,25.03
2022-07-29T14:47:10.245Z,25.14
2022-07-29T14:49:37.472Z,25.17
2022-07-29T14:52:04.995Z,25.13
2022-07-29T14:54:32.233Z,25.00
2022-07-29T14:56:59.587Z,24.98
2022-07-29T14:59:27.498Z,24.88
2022-07-29T15:01:55.002Z,24.64
2022-07-29T15:04:22.223Z,24.77
2022-07-29T15:06:49.673Z,24.74
2022-07-29T15:09:17.231Z,24.70
2022-07-29T15:11:44.921Z,24.72
2022-07-29T15:14:12.351Z,24.78
2022-07-29T15:16:43.577Z,24.88
2022-07-29T15:19:11.256Z,25.06
2022-07-29T15:21:41.338Z,25.19
2022-07-29T15:24:15.989Z,25.26
2022-07-29T15:26:44.768Z,25.34
2022-07-29T15:29:12.008Z,25.34
2022-07-29T15:31:39.716Z,25.30
2022-07-29T15:34:07.869Z,25.31
2022-07-29T15:36:51.609Z,25.26
2022-07-29T15:39:21.934Z,25.17
2022-07-29T15:41:49.670Z,24.92
2022-07-29T15:44:16.756Z,25.02
2022-07-29T15:47:02.757Z,25.00
2022-07-29T15:49:46.594Z,24.88
2022-07-29T15:52:26.251Z,24.79
2022-07-29T15:54:56.325Z,24.74
2022-07-29T15:57:23.958Z,24.73
2022-07-29T15:59:52.177Z,24.75
2022-07-29T16:02:19.933Z,24.73
2022-07-29T16:04:47.453Z,24.80
2022-07-29T16:07:15.660Z,24.72
2022-07-29T16:09:43.793Z,24.80
2022-07-29T16:12:15.111Z,24.80
2022-07-29T16:14:44.180Z,24.83
2022-07-29T16:17:14.807Z,24.80
2022-07-29T16:19:43.660Z,24.77
2022-07-29T16:22:11.113Z,24.84
2022-07-29T16:24:39.505Z,24.86
2022-07-29T16:27:07.238Z,24.87
2022-07-29T16:29:34.520Z,24.85
2022-07-29T16:32:02.121Z,24.81
2022-07-29T16:34:29.789Z,24.85
2022-07-29T16:36:56.980Z,24.83
2022-07-29T16:39:24.389Z,24.80
2022-07-29T16:41:51.554Z,24.82
2022-07-29T16:44:18.959Z,24.76
2022-07-29T16:46:46.851Z,24.70
2022-07-29T16:49:19.283Z,24.63
2022-07-29T16:51:48.147Z,24.57
2022-07-29T16:54:15.603Z,24.54
2022-07-29T16:56:43.013Z,24.49
2022-07-29T16:59:10.411Z,24.50
2022-07-29T17:01:37.806Z,24.51
2022-07-29T17:04:08.176Z,24.51
2022-07-29T17:06:40.536Z,24.33
2022-07-29T17:09:09.335Z,24.43
2022-07-29T17:11:53.687Z,24.37
2022-07-29T17:14:27.293Z,24.36
2022-07-29T17:17:01.155Z,24.33
2022-07-29T17:19:35.658Z,24.28
2022-07-29T17:22:11.585Z,24.23
2022-07-29T17:24:42.184Z,24.20
2022-07-29T17:27:10.513Z,24.17
2022-07-29T17:29:39.227Z,24.14
2022-07-29T17:32:07.824Z,24.09
2022-07-29T17:34:36.636Z,24.06
2022-07-29T17:37:05.683Z,24.02
2022-07-29T17:39:35.292Z,24.01
2022-07-29T17:42:05.904Z,23.99
2022-07-29T17:44:36.121Z,23.97
2022-07-29T17:47:05.022Z,23.94
2022-07-29T17:49:33.010Z,23.91
2022-07-29T17:52:03.637Z,23.87
2022-07-29T17:54:30.898Z,23.85
2022-07-29T17:56:58.266Z,23.82
2022-07-29T17:59:26.247Z,23.79
2022-07-29T18:01:53.485Z,23.77
2022-07-29T18:04:23.651Z,23.75
2022-07-29T18:06:50.655Z,23.69
2022-07-29T18:09:17.798Z,23.66
2022-07-29T18:11:45.915Z,23.63
2022-07-29T18:14:13.759Z,23.56
2022-07-29T18:16:40.946Z,23.53
2022-07-29T18:19:08.248Z,23.47
2022-07-29T18:21:43.429Z,23.40
2022-07-29T18:24:23.390Z,23.33
2022-07-29T18:26:50.528Z,23.29
2022-07-29T18:29:17.649Z,23.23
2022-07-29T18:31:44.821Z,23.16
2022-07-29T18:34:12.029Z,23.10
2022-07-29T18:36:39.178Z,22.99
2022-07-29T18:39:06.490Z,22.91
2022-07-29T18:41:34.108Z,22.91
2022-07-29T18:44:01.308Z,22.87
2022-07-29T18:46:28.580Z,22.78
2022-07-29T18:48:57.522Z,22.76
2022-07-29T18:51:24.709Z,22.72
2022-07-29T18:53:52.687Z,22.65
2022-07-29T18:56:19.980Z,22.62
2022-07-29T18:58:47.231Z,22.57
2022-07-29T19:01:16.691Z,22.50
2022-07-29T19:03:44.246Z,22.47
2022-07-29T19:06:11.634Z,22.43
2022-07-29T19:08:38.969Z,22.40
2022-07-29T19:11:06.308Z,22.35
2022-07-29T19:13:34.229Z,22.33
2022-07-29T19:16:01.582Z,22.31
2022-07-29T19:18:28.858Z,22.28
2022-07-29T19:20:56.098Z,22.24
2022-07-29T19:23:24.300Z,22.17
2022-07-29T19:25:53.568Z,22.04
2022-07-29T19:28:22.251Z,21.95
2022-07-29T19:30:49.996Z,21.88
2022-07-29T19:33:19.151Z,21.79
2022-07-29T19:35:49.325Z,21.72
2022-07-29T19:38:18.937Z,21.66
2022-07-29T19:40:46.049Z,21.63
2022-07-29T19:43:50.022Z,21.58
2022-07-29T19:46:00.880Z,21.53
2022-07-29T19:48:28.128Z,21.50
2022-07-29T19:50:55.353Z,21.40
2022-07-29T19:53:22.729Z,21.37
2022-07-29T19:55:49.947Z,21.33
2022-07-29T19:58:17.065Z,21.29
2022-07-29T20:00:44.618Z,21.24
2022-07-29T20:03:13.893Z,21.24
2022-07-29T20:05:41.624Z,21.17
2022-07-29T20:08:15.075Z,21.12
2022-07-29T20:10:42.739Z,21.03
2022-07-29T20:13:10.136Z,21.05
2022-07-29T20:15:37.722Z,21.01
2022-07-29T20:18:05.423Z,20.97
2022-07-29T20:20:33.024Z,20.91
2022-07-29T20:23:01.387Z,20.87
2022-07-29T20:25:29.255Z,20.81
2022-07-29T20:27:56.858Z,20.78
2022-07-29T20:30:25.246Z,20.75
2022-07-29T20:32:53.015Z,20.70
2022-07-29T20:35:22.599Z,20.69
2022-07-29T20:37:52.400Z,20.64
2022-07-29T20:40:24.614Z,20.63
2022-07-29T20:42:53.325Z,20.57
2022-07-29T20:45:21.059Z,20.55
2022-07-29T20:47:48.466Z,20.48
2022-07-29T20:50:15.843Z,20.37
2022-07-29T20:52:44.465Z,20.38
2022-07-29T20:55:11.842Z,20.32
2022-07-29T20:57:40.222Z,20.23
2022-07-29T21:00:08.755Z,20.19
2022-07-29T21:02:36.881Z,20.14
2022-07-29T21:05:05.816Z,20.08
2022-07-29T21:07:33.255Z,19.85
2022-07-29T21:10:01.028Z,19.98
2022-07-29T21:12:30.583Z,19.85
2022-07-29T21:14:58.083Z,19.88
2022-07-29T21:17:25.564Z,19.89
2022-07-29T21:19:53.842Z,19.82
2022-07-29T21:22:22.582Z,19.75
2022-07-29T21:24:51.801Z,19.71
2022-07-29T21:27:38.304Z,19.71
2022-07-29T21:30:08.639Z,19.67
2022-07-29T21:32:37.255Z,19.62
2022-07-29T21:35:18.317Z,19.61
2022-07-29T21:37:54.326Z,19.54
2022-07-29T21:40:22.285Z,19.43
2022-07-29T21:42:49.495Z,19.49
2022-07-29T21:45:17.245Z,19.41
2022-07-29T21:47:44.483Z,19.34
2022-07-29T21:50:11.654Z,19.37
2022-07-29T21:52:39.186Z,19.28
2022-07-29T21:55:07.654Z,19.24
2022-07-29T21:57:37.832Z,19.23
2022-07-29T22:00:08.617Z,19.11
2022-07-29T22:02:39.900Z,19.16
2022-07-29T22:05:08.618Z,19.07
2022-07-29T22:07:54.628Z,19.06
2022-07-29T22:10:28.942Z,19.02
2022-07-29T22:12:57.604Z,19.02
2022-07-29T22:15:25.916Z,19.01
2022-07-29T22:17:53.393Z,18.95
2022-07-29T22:20:21.232Z,18.98
2022-07-29T22:22:48.397Z,18.96
2022-07-29T22:25:15.821Z,18.92
2022-07-29T22:27:42.991Z,18.85
2022-07-29T22:30:10.705Z,18.87
2022-07-29T22:32:37.942Z,18.79
2022-07-29T22:35:05.563Z,18.76
2022-07-29T22:37:33.064Z,18.77
2022-07-29T22:40:00.130Z,18.69
2022-07-29T22:42:27.135Z,18.70
2022-07-29T22:44:54.735Z,18.54
2022-07-29T22:47:46.081Z,18.69
2022-07-29T22:50:09.240Z,18.66
2022-07-29T22:52:36.528Z,18.57
2022-07-29T22:55:05.835Z,18.58
2022-07-29T22:57:32.951Z,18.57
2022-07-29T23:00:02.552Z,18.50
2022-07-29T23:02:30.062Z,18.50
2022-07-29T23:04:57.597Z,18.47
2022-07-29T23:07:24.923Z,18.45
2022-07-29T23:09:52.243Z,18.42
2022-07-29T23:12:19.355Z,18.40
2022-07-29T23:14:46.908Z,18.37
2022-07-29T23:17:14.085Z,18.24
2022-07-29T23:19:41.428Z,18.34
2022-07-29T23:22:08.548Z,18.32
2022-07-29T23:24:35.625Z,18.24
2022-07-29T23:27:02.853Z,18.23
2022-07-29T23:29:33.839Z,18.21
2022-07-29T23:32:03.823Z,18.18
2022-07-29T23:34:30.865Z,18.10
2022-07-29T23:36:58.146Z,18.04
2022-07-29T23:39:25.399Z,18.07
2022-07-29T23:41:52.618Z,18.06
2022-07-29T23:44:19.688Z,17.66
2022-07-29T23:46:46.837Z,18.06
2022-07-29T23:49:14.818Z,18.04
2022-07-29T23:51:42.137Z,18.03
2022-07-29T23:54:09.192Z,17.95
2022-07-29T23:56:36.258Z,18.02
2022-07-29T23:59:05.773Z,17.98
